Time;durP1;ratioP1;P1;durP2;ratioP2;P2;SDS_P1;SDS_P2;PMS_P1;PMS_P2;Temp;Humidity;BMP_temperature;BMP_pressure;BME280_temperature;BME280_humidity;BME280_pressure;Samples;Min_cycle;Max_cycle;Signal;HPM_P1;HPM_P2
2021/11/05 00:01:45;;;;;;;2.47;0.60;;;22.20;99.90;;;;;;5081444;28;20502;-75
2021/11/05 00:04:13;;;;;;;3.20;0.63;;;22.30;99.90;;;;;;5083998;28;20091;-75
2021/11/05 00:06:40;;;;;;;4.07;1.13;;;22.50;99.90;;;;;;5087393;28;20047;-75
2021/11/05 00:09:08;;;;;;;5.20;0.95;;;22.60;99.90;;;;;;5088978;28;20031;-73
2021/11/05 00:11:35;;;;;;;1.98;0.50;;;22.50;99.90;;;;;;5081998;28;20039;-74
2021/11/05 00:14:03;;;;;;;6.50;1.23;;;22.70;99.90;;;;;;5090632;28;20425;-74
2021/11/05 00:16:30;;;;;;;5.00;0.82;;;22.80;99.90;;;;;;5084927;28;20440;-74
2021/11/05 00:18:57;;;;;;;3.38;1.15;;;22.80;99.90;;;;;;5083282;28;20028;-74
2021/11/05 00:21:24;;;;;;;2.83;0.80;;;22.80;99.90;;;;;;5086752;28;20047;-75
2021/11/05 00:23:52;;;;;;;1.77;1.17;;;22.70;99.90;;;;;;5081844;28;20378;-78
2021/11/05 00:26:19;;;;;;;5.93;0.90;;;22.80;99.90;;;;;;5081553;28;20036;-79
2021/11/05 00:28:46;;;;;;;1.20;0.65;;;22.70;99.90;;;;;;5075558;28;20478;-77
2021/11/05 00:31:14;;;;;;;5.28;1.05;;;22.70;99.90;;;;;;5082112;28;20032;-79
2021/11/05 00:33:41;;;;;;;2.53;0.65;;;22.90;99.90;;;;;;5091666;28;20562;-79
2021/11/05 00:36:13;;;;;;;1.60;0.52;;;23.00;99.90;;;;;;5078006;28;20115;-79
2021/11/05 00:38:43;;;;;;;5.78;0.82;;;22.80;99.90;;;;;;5079593;28;20028;-77
2021/11/05 00:41:11;;;;;;;2.20;0.70;;;22.80;99.90;;;;;;5081436;28;20070;-81
2021/11/05 00:43:38;;;;;;;4.28;1.10;;;22.60;99.90;;;;;;5079744;28;20024;-79
2021/11/05 00:46:06;;;;;;;2.40;0.73;;;22.50;99.90;;;;;;5087146;28;20032;-77
2021/11/05 00:48:34;;;;;;;4.00;1.10;;;22.40;99.90;;;;;;5091933;28;20379;-80
2021/11/05 00:51:02;;;;;;;5.65;0.95;;;22.30;99.90;;;;;;5087838;28;20028;-79
2021/11/05 00:53:29;;;;;;;2.20;0.73;;;22.30;99.90;;;;;;5076679;28;20016;-80
2021/11/05 00:55:57;;;;;;;3.38;0.63;;;22.10;99.90;;;;;;5093646;28;20107;-73
2021/11/05 00:58:24;;;;;;;4.97;0.50;;;22.00;99.90;;;;;;5095061;28;20035;-80
2021/11/05 01:00:51;;;;;;;3.88;0.70;;;21.90;99.90;;;;;;5092069;28;20020;-79
2021/11/05 01:03:19;;;;;;;3.13;0.65;;;21.80;99.90;;;;;;5088477;28;20028;-81
2021/11/05 01:05:46;;;;;;;2.75;0.98;;;21.80;99.90;;;;;;5094234;28;20067;-80
2021/11/05 01:08:13;;;;;;;3.63;0.60;;;21.80;99.90;;;;;;5103282;28;20028;-77
2021/11/05 01:10:41;;;;;;;5.10;1.33;;;21.80;99.90;;;;;;5083444;28;20507;-79
2021/11/05 01:13:08;;;;;;;2.45;0.70;;;21.80;99.90;;;;;;5090644;28;20076;-79
2021/11/05 01:15:36;;;;;;;5.32;0.50;;;22.00;99.90;;;;;;5091446;28;20025;-79
2021/11/05 01:18:04;;;;;;;1.60;0.40;;;22.20;99.90;;;;;;5083414;28;20048;-78
2021/11/05 01:20:31;;;;;;;3.58;1.23;;;22.40;99.90;;;;;;5068388;28;20391;-76
2021/11/05 01:22:58;;;;;;;5.75;0.75;;;22.60;99.90;;;;;;5090083;28;20031;-74
2021/11/05 01:25:26;;;;;;;3.10;0.68;;;22.60;99.90;;;;;;5091758;28;20443;-77
2021/11/05 01:27:54;;;;;;;7.32;1.70;;;22.70;99.90;;;;;;5078493;28;20024;-77
2021/11/05 01:30:21;;;;;;;3.78;0.60;;;22.90;99.90;;;;;;5093034;28;20032;-76
2021/11/05 01:32:49;;;;;;;1.70;0.80;;;22.90;99.90;;;;;;5092136;28;20090;-77
2021/11/05 01:35:17;;;;;;;2.78;0.60;;;23.10;99.90;;;;;;5093126;28;20112;-75
2021/11/05 01:37:45;;;;;;;3.80;0.60;;;23.10;99.90;;;;;;5088380;28;20414;-73
2021/11/05 01:40:15;;;;;;;2.90;0.52;;;23.00;99.90;;;;;;5093526;28;20032;-74
2021/11/05 01:42:43;;;;;;;4.93;0.50;;;23.00;99.90;;;;;;5084473;28;20020;-79
2021/11/05 01:45:13;;;;;;;4.18;0.30;;;23.00;99.90;;;;;;5084379;28;20043;-80
2021/11/05 01:47:41;;;;;;;3.58;1.50;;;23.20;99.90;;;;;;5089222;28;20540;-78
2021/11/05 01:50:10;;;;;;;1.17;0.20;;;23.40;99.90;;;;;;5093371;28;20020;-76
2021/11/05 01:52:39;;;;;;;1.00;0.50;;;23.50;99.90;;;;;;5073004;28;20509;-78
2021/11/05 01:55:08;;;;;;;1.30;0.30;;;23.80;99.90;;;;;;5089351;28;20441;-73
2021/11/05 01:57:36;;;;;;;3.33;0.20;;;24.00;99.90;;;;;;5092468;28;20027;-82
2021/11/05 02:00:06;;;;;;;2.42;0.50;;;24.20;99.90;;;;;;5090951;28;20031;-80
2021/11/05 02:02:33;;;;;;;3.15;0.55;;;24.60;99.90;;;;;;5092593;28;20027;-80
2021/11/05 02:05:00;;;;;;;1.55;0.30;;;24.80;99.40;;;;;;5093075;28;20119;-81
2021/11/05 02:07:32;;;;;;;3.22;0.68;;;24.80;98.90;;;;;;5082102;28;20024;-76
2021/11/05 02:10:01;;;;;;;0.57;0.20;;;24.80;98.50;;;;;;5083172;28;20025;-78
2021/11/05 02:12:30;;;;;;;1.13;0.25;;;24.90;98.60;;;;;;5091395;28;20028;-79
2021/11/05 02:15:03;;;;;;;1.48;0.40;;;24.90;98.50;;;;;;5093494;28;20081;-77
2021/11/05 02:17:31;;;;;;;1.60;0.30;;;24.80;97.90;;;;;;5076787;28;20518;-77
2021/11/05 02:19:59;;;;;;;3.10;0.40;;;24.50;98.20;;;;;;5080332;28;20115;-70
2021/11/05 02:22:28;;;;;;;1.25;0.65;;;24.50;98.40;;;;;;5077851;28;20043;-72
2021/11/05 02:24:56;;;;;;;3.35;0.75;;;24.60;98.30;;;;;;5083481;28;20027;-72
2021/11/05 02:27:23;;;;;;;1.80;0.30;;;24.50;98.70;;;;;;5080129;28;20081;-71
2021/11/05 02:29:51;;;;;;;2.22;0.30;;;24.50;98.70;;;;;;5082946;28;20031;-79
2021/11/05 02:32:18;;;;;;;1.48;0.90;;;24.70;99.10;;;;;;5076950;28;20055;-81
2021/11/05 02:34:46;;;;;;;2.15;0.50;;;24.80;98.30;;;;;;5082744;28;20062;-75
2021/11/05 02:37:13;;;;;;;0.77;0.30;;;24.60;98.40;;;;;;5076425;28;20040;-77
2021/11/05 02:39:41;;;;;;;1.65;0.63;;;24.40;98.40;;;;;;5081338;28;20032;-75
2021/11/05 02:42:08;;;;;;;1.83;0.47;;;24.10;99.30;;;;;;5080827;28;21890;-74
2021/11/05 02:44:36;;;;;;;3.53;0.30;;;24.00;99.80;;;;;;5075853;28;20047;-74
2021/11/05 02:47:21;;;;;;;2.03;0.63;;;23.80;99.90;;;;;;5082318;28;20050;-74
2021/11/05 02:49:49;;;;;;;1.90;0.30;;;23.60;99.90;;;;;;5082172;28;20040;-73
2021/11/05 02:52:16;;;;;;;1.55;0.15;;;23.30;99.90;;;;;;5080112;28;20549;-73
2021/11/05 02:54:44;;;;;;;2.17;0.65;;;23.10;99.90;;;;;;5081479;28;20016;-73
2021/11/05 02:57:11;;;;;;;1.17;0.30;;;22.90;99.90;;;;;;5079000;28;20479;-73
2021/11/05 02:59:39;;;;;;;2.05;0.30;;;22.80;99.90;;;;;;5080479;28;20044;-72
2021/11/05 03:02:08;;;;;;;5.57;0.30;;;22.90;99.90;;;;;;5080646;28;20049;-73
2021/11/05 03:04:37;;;;;;;1.52;0.22;;;22.90;99.90;;;;;;5084359;28;20983;-73
2021/11/05 03:07:10;;;;;;;3.15;0.30;;;23.00;99.90;;;;;;5086607;28;20557;-72
2021/11/05 03:09:40;;;;;;;2.42;0.30;;;22.90;99.90;;;;;;5090647;28;20032;-73
2021/11/05 03:12:11;;;;;;;1.55;0.30;;;23.10;99.90;;;;;;5075888;28;20059;-74
2021/11/05 03:14:39;;;;;;;2.42;0.38;;;23.20;99.90;;;;;;5087064;28;20024;-75
2021/11/05 03:17:07;;;;;;;0.57;0.20;;;23.20;99.50;;;;;;5088276;28;20028;-72
2021/11/05 03:19:35;;;;;;;2.75;0.43;;;23.20;99.90;;;;;;5088612;28;20028;-72
2021/11/05 03:22:04;;;;;;;4.75;0.68;;;23.30;99.90;;;;;;5081812;28;20020;-74
2021/11/05 03:24:32;;;;;;;2.15;0.15;;;23.30;99.70;;;;;;5089084;28;20091;-73
2021/11/05 03:26:59;;;;;;;4.03;0.82;;;23.40;99.50;;;;;;5078505;28;20040;-74
2021/11/05 03:29:27;;;;;;;4.88;0.25;;;23.50;99.90;;;;;;5088506;28;20028;-74
2021/11/05 03:31:54;;;;;;;1.65;0.22;;;23.70;98.80;;;;;;5088663;28;20036;-73
2021/11/05 03:34:22;;;;;;;1.33;0.40;;;23.70;98.40;;;;;;5081535;28;20028;-75
2021/11/05 03:36:49;;;;;;;5.10;0.40;;;23.80;98.50;;;;;;5077530;28;20039;-73
2021/11/05 03:39:17;;;;;;;1.70;0.25;;;23.90;98.40;;;;;;5081043;28;20047;-73
2021/11/05 03:41:45;;;;;;;3.08;0.30;;;24.00;98.20;;;;;;5079635;28;20028;-75
2021/11/05 03:44:13;;;;;;;1.48;0.35;;;23.90;98.30;;;;;;5061331;28;20058;-75
2021/11/05 03:46:40;;;;;;;2.83;0.30;;;24.00;98.50;;;;;;5083643;28;20044;-76
2021/11/05 03:49:08;;;;;;;7.00;1.25;;;24.10;97.10;;;;;;5083208;28;20024;-75
2021/11/05 03:51:35;;;;;;;2.40;0.47;;;24.00;98.40;;;;;;5061782;28;20055;-74
2021/11/05 03:54:03;;;;;;;1.60;0.40;;;24.10;97.90;;;;;;5074165;28;20012;-74
2021/11/05 03:56:31;;;;;;;0.32;0.10;;;24.10;97.40;;;;;;5078010;28;20269;-75
2021/11/05 03:58:58;;;;;;;1.40;0.28;;;24.20;97.00;;;;;;5075047;28;20471;-73
2021/11/05 04:01:26;;;;;;;2.83;0.60;;;24.40;96.60;;;;;;5079057;28;20028;-73
2021/11/05 04:03:53;;;;;;;1.73;0.28;;;24.50;95.90;;;;;;5081609;28;20059;-75
2021/11/05 04:06:22;;;;;;;1.23;0.20;;;24.40;95.00;;;;;;5080039;28;20483;-71
2021/11/05 04:08:50;;;;;;;2.17;0.30;;;24.50;95.50;;;;;;5082342;28;20035;-73
2021/11/05 04:11:18;;;;;;;3.65;0.22;;;24.50;95.30;;;;;;5082893;28;20127;-74
2021/11/05 04:13:46;;;;;;;2.55;0.20;;;24.50;95.30;;;;;;5089174;28;20016;-74
2021/11/05 04:16:14;;;;;;;0.68;0.10;;;24.50;95.40;;;;;;5081781;28;20047;-73
2021/11/05 04:18:42;;;;;;;0.63;0.10;;;24.40;94.80;;;;;;5082225;28;20545;-74
2021/11/05 04:21:09;;;;;;;2.53;0.17;;;24.30;95.00;;;;;;5085864;28;20032;-73
2021/11/05 04:23:38;;;;;;;1.23;0.30;;;24.30;95.00;;;;;;5085916;28;20016;-74
2021/11/05 04:26:06;;;;;;;6.43;0.20;;;24.40;94.80;;;;;;5078321;28;20040;-73
2021/11/05 04:28:34;;;;;;;1.45;0.10;;;24.40;95.60;;;;;;5083943;28;21578;-73
2021/11/05 04:31:03;;;;;;;1.17;0.32;;;24.40;95.50;;;;;;5060749;28;20117;-74
2021/11/05 04:33:31;;;;;;;1.40;0.28;;;24.30;95.40;;;;;;5082239;28;20048;-74
2021/11/05 04:36:00;;;;;;;3.95;0.20;;;24.30;96.00;;;;;;5084056;28;20036;-73
2021/11/05 04:38:28;;;;;;;1.83;0.10;;;24.20;96.20;;;;;;5065573;28;20522;-72
2021/11/05 04:40:56;;;;;;;1.10;0.20;;;24.00;96.20;;;;;;5079017;28;20074;-72
2021/11/05 04:43:24;;;;;;;3.25;0.10;;;23.90;96.10;;;;;;5086953;28;20028;-74
2021/11/05 04:45:51;;;;;;;0.85;0.32;;;23.90;96.50;;;;;;5087951;28;20035;-73
2021/11/05 04:48:18;;;;;;;0.57;0.13;;;23.80;96.80;;;;;;5094221;28;20024;-74
2021/11/05 04:50:46;;;;;;;0.98;0.13;;;23.60;97.00;;;;;;5088701;28;20028;-73
2021/11/05 04:53:13;;;;;;;3.95;0.38;;;23.60;97.60;;;;;;5089248;28;20016;-73
2021/11/05 04:55:41;;;;;;;1.08;0.10;;;23.50;98.20;;;;;;5090746;28;20058;-74
2021/11/05 04:58:09;;;;;;;1.05;0.20;;;23.30;98.80;;;;;;5096295;28;20070;-73
2021/11/05 05:00:37;;;;;;;1.83;0.45;;;23.20;99.10;;;;;;5069286;28;20459;-73
2021/11/05 05:03:05;;;;;;;2.58;0.40;;;23.20;99.50;;;;;;5075390;28;20120;-72
2021/11/05 05:05:32;;;;;;;4.97;0.73;;;23.10;99.50;;;;;;5090956;28;20123;-73
2021/11/05 05:08:00;;;;;;;3.47;0.60;;;23.00;99.80;;;;;;5081920;28;20085;-74
2021/11/05 05:10:28;;;;;;;3.28;0.20;;;23.20;99.80;;;;;;5087325;28;21839;-73
2021/11/05 05:12:56;;;;;;;4.22;0.75;;;23.10;99.90;;;;;;5091265;28;20035;-72
2021/11/05 05:15:24;;;;;;;4.88;0.43;;;23.10;99.90;;;;;;5091872;28;20107;-73
2021/11/05 05:17:51;;;;;;;2.33;0.20;;;23.00;99.90;;;;;;5088503;28;20031;-73
2021/11/05 05:20:20;;;;;;;2.42;0.10;;;23.00;99.90;;;;;;5092174;28;20391;-73
2021/11/05 05:22:48;;;;;;;4.60;0.70;;;22.80;99.90;;;;;;5091927;28;20016;-72
2021/11/05 05:25:18;;;;;;;4.30;0.30;;;22.80;99.90;;;;;;5090774;28;20036;-74
2021/11/05 05:27:48;;;;;;;3.67;0.45;;;22.80;99.90;;;;;;5078530;28;20089;-74
2021/11/05 05:30:18;;;;;;;1.83;0.30;;;22.60;99.90;;;;;;5076480;28;20040;-74
2021/11/05 05:32:48;;;;;;;0.82;0.25;;;22.40;99.90;;;;;;5068434;28;20045;-72
2021/11/05 05:35:17;;;;;;;2.80;1.23;;;22.10;99.90;;;;;;5079229;28;20038;-71
2021/11/05 05:37:44;;;;;;;0.75;0.20;;;21.50;99.90;;;;;;5070249;28;20191;-70
2021/11/05 05:40:13;;;;;;;6.18;1.38;;;21.10;99.90;;;;;;5069469;28;20107;-74
2021/11/05 05:42:41;;;;;;;4.70;0.32;;;20.90;99.90;;;;;;5068320;28;20154;-72
2021/11/05 05:45:10;;;;;;;0.57;0.28;;;20.70;99.90;;;;;;5067322;28;20111;-72
2021/11/05 05:47:40;;;;;;;1.60;0.68;;;20.50;99.90;;;;;;5068621;28;20052;-72
2021/11/05 05:50:10;;;;;;;3.63;0.60;;;20.30;99.90;;;;;;5071087;28;20082;-73
2021/11/05 05:52:37;;;;;;;1.00;0.30;;;20.00;99.90;;;;;;5067369;28;20032;-73
2021/11/05 05:55:07;;;;;;;1.63;0.22;;;19.80;99.90;;;;;;5067904;28;20486;-74
2021/11/05 05:57:35;;;;;;;3.72;1.10;;;19.80;99.90;;;;;;5068301;28;20154;-74
2021/11/05 06:00:03;;;;;;;5.35;0.50;;;19.80;99.90;;;;;;5067578;28;20031;-73
2021/11/05 06:02:30;;;;;;;7.18;0.52;;;19.80;99.90;;;;;;5072470;28;20036;-73
2021/11/05 06:04:58;;;;;;;2.90;0.45;;;19.80;99.90;;;;;;5087044;28;20070;-73
2021/11/05 06:07:26;;;;;;;3.78;0.73;;;19.80;99.90;;;;;;5089403;28;20032;-73
2021/11/05 06:09:53;;;;;;;3.28;1.15;;;20.00;99.90;;;;;;5070157;28;20366;-73
2021/11/05 06:12:22;;;;;;;1.05;0.45;;;20.20;99.90;;;;;;5079819;28;20023;-73
2021/11/05 06:14:50;;;;;;;2.25;0.30;;;20.30;99.90;;;;;;5084457;28;20016;-73
2021/11/05 06:17:17;;;;;;;1.50;0.35;;;20.40;99.90;;;;;;5074456;28;20028;-74
2021/11/05 06:19:45;;;;;;;0.68;0.30;;;20.40;99.90;;;;;;5081989;28;20027;-72
2021/11/05 06:22:12;;;;;;;2.55;0.40;;;20.50;99.90;;;;;;5075276;28;20020;-72
2021/11/05 06:24:39;;;;;;;1.50;0.20;;;20.50;99.90;;;;;;5088056;28;20033;-75
2021/11/05 06:27:07;;;;;;;3.45;0.80;;;20.60;99.90;;;;;;5083823;28;20036;-76
2021/11/05 06:29:34;;;;;;;5.88;1.17;;;20.70;99.90;;;;;;5065715;28;20114;-73
2021/11/05 06:32:02;;;;;;;0.70;0.13;;;20.80;99.90;;;;;;5069234;28;20542;-73
2021/11/05 06:34:29;;;;;;;0.38;0.20;;;20.90;99.90;;;;;;5066416;28;20032;-72
2021/11/05 06:36:57;;;;;;;3.30;0.55;;;20.90;99.90;;;;;;5069425;28;20522;-74
2021/11/05 06:39:25;;;;;;;2.75;0.20;;;20.80;99.90;;;;;;5065614;28;20063;-73
2021/11/05 06:41:52;;;;;;;2.67;0.50;;;20.90;99.90;;;;;;5068736;28;20111;-73
2021/11/05 06:44:22;;;;;;;0.10;0.10;;;21.00;99.90;;;;;;5053586;28;20414;-73
2021/11/05 06:46:50;;;;;;;1.00;0.40;;;21.00;99.90;;;;;;5068469;28;20395;-74
2021/11/05 06:49:17;;;;;;;1.83;0.28;;;21.00;99.90;;;;;;5064974;28;20024;-74
2021/11/05 06:51:45;;;;;;;1.42;0.40;;;21.00;99.90;;;;;;5068389;28;20030;-75
2021/11/05 06:54:13;;;;;;;1.15;0.30;;;21.10;99.90;;;;;;5071459;28;20024;-77
2021/11/05 06:56:40;;;;;;;0.73;0.30;;;21.10;99.90;;;;;;5081294;28;20379;-75
2021/11/05 06:59:07;;;;;;;0.63;0.28;;;21.20;99.90;;;;;;5070081;28;20028;-76
2021/11/05 07:01:34;;;;;;;2.72;0.40;;;21.10;99.90;;;;;;5070715;28;20024;-72
2021/11/05 07:04:02;;;;;;;0.40;0.20;;;21.00;99.90;;;;;;5073787;28;20028;-78
2021/11/05 07:06:29;;;;;;;1.17;0.40;;;21.00;99.90;;;;;;5070587;28;20056;-75
2021/11/05 07:08:58;;;;;;;2.35;0.25;;;20.90;99.90;;;;;;5069651;28;20032;-80
2021/11/05 07:11:25;;;;;;;1.05;0.32;;;20.90;99.90;;;;;;5065225;28;20544;-77
2021/11/05 07:13:52;;;;;;;2.08;0.45;;;20.90;99.90;;;;;;5067581;28;20042;-75
2021/11/05 07:16:21;;;;;;;1.10;0.40;;;20.90;99.90;;;;;;5065955;28;20532;-74
2021/11/05 07:18:49;;;;;;;1.88;0.60;;;21.00;99.90;;;;;;5061339;28;20028;-74
2021/11/05 07:21:18;;;;;;;3.53;0.63;;;21.00;99.90;;;;;;5063895;28;20115;-75
2021/11/05 07:23:47;;;;;;;4.20;1.00;;;20.90;99.90;;;;;;5066333;28;20107;-75
2021/11/05 07:26:14;;;;;;;2.72;0.88;;;20.90;99.90;;;;;;5073940;28;20074;-76
2021/11/05 07:28:42;;;;;;;1.73;0.60;;;20.90;99.90;;;;;;5074261;28;20375;-74
2021/11/05 07:31:10;;;;;;;1.02;0.50;;;20.90;99.90;;;;;;5065756;28;20031;-76
2021/11/05 07:33:37;;;;;;;0.93;0.75;;;21.00;99.90;;;;;;5063379;28;20188;-74
2021/11/05 07:36:05;;;;;;;2.72;0.50;;;20.90;99.90;;;;;;5063664;28;20051;-76
2021/11/05 07:38:32;;;;;;;2.00;0.60;;;20.90;99.90;;;;;;5062148;28;20052;-74
2021/11/05 07:41:00;;;;;;;3.30;0.98;;;20.90;99.90;;;;;;5067059;28;20078;-76
2021/11/05 07:43:27;;;;;;;2.55;0.95;;;21.00;99.90;;;;;;5070356;28;20112;-75
2021/11/05 07:45:54;;;;;;;3.05;0.70;;;21.20;99.90;;;;;;5076593;28;20071;-77
2021/11/05 07:48:22;;;;;;;4.32;1.48;;;21.20;99.90;;;;;;5071029;28;20158;-76
2021/11/05 07:50:49;;;;;;;3.22;0.93;;;21.20;99.90;;;;;;5068491;28;20024;-77
2021/11/05 07:53:16;;;;;;;4.80;1.77;;;21.20;99.90;;;;;;5065100;28;20073;-74
2021/11/05 07:55:46;;;;;;;3.45;0.47;;;21.20;99.90;;;;;;5074255;28;20115;-78
2021/11/05 07:58:13;;;;;;;5.78;1.33;;;21.20;99.90;;;;;;5078029;28;20016;-77
2021/11/05 08:00:41;;;;;;;0.88;0.38;;;21.20;99.90;;;;;;5072865;28;20028;-76
2021/11/05 08:03:09;;;;;;;1.38;0.70;;;21.20;99.90;;;;;;5070190;28;22366;-77
2021/11/05 08:05:36;;;;;;;7.13;0.82;;;21.10;99.90;;;;;;5065060;28;20044;-78
2021/11/05 08:08:04;;;;;;;3.20;1.20;;;21.00;99.90;;;;;;5084071;28;20475;-77
2021/11/05 08:10:31;;;;;;;5.97;1.55;;;21.00;99.90;;;;;;5082834;28;20039;-75
2021/11/05 08:12:59;;;;;;;2.97;0.60;;;21.00;99.90;;;;;;5084130;28;20036;-72
2021/11/05 08:15:26;;;;;;;3.97;0.93;;;20.80;99.90;;;;;;5082503;28;20058;-74
2021/11/05 08:17:53;;;;;;;1.38;0.30;;;20.80;99.90;;;;;;5079335;28;20031;-75
2021/11/05 08:20:21;;;;;;;1.85;0.60;;;20.70;99.90;;;;;;5085291;28;20039;-75
2021/11/05 08:22:49;;;;;;;2.83;0.40;;;20.60;99.90;;;;;;5084815;28;20032;-76
2021/11/05 08:25:18;;;;;;;3.10;0.60;;;20.60;99.90;;;;;;5079015;28;20462;-75
2021/11/05 08:27:47;;;;;;;2.45;0.40;;;20.60;99.90;;;;;;5082718;28;20109;-75
2021/11/05 08:30:20;;;;;;;3.20;0.30;;;20.50;99.90;;;;;;5079803;28;20059;-74
2021/11/05 08:32:48;;;;;;;4.95;0.90;;;20.50;99.90;;;;;;5080775;28;20049;-73
2021/11/05 08:35:16;;;;;;;2.80;0.47;;;20.40;99.90;;;;;;5080958;28;20020;-75
2021/11/05 08:37:44;;;;;;;4.40;0.40;;;20.40;99.90;;;;;;5083067;28;20467;-75
2021/11/05 08:40:12;;;;;;;3.85;0.65;;;20.30;99.90;;;;;;5082932;28;20028;-73
2021/11/05 08:42:40;;;;;;;2.83;0.40;;;20.30;99.90;;;;;;5082555;28;20059;-79
2021/11/05 08:45:09;;;;;;;1.42;0.20;;;20.20;99.90;;;;;;5080490;28;20032;-73
2021/11/05 08:47:38;;;;;;;2.90;0.98;;;20.20;99.90;;;;;;5082402;28;20498;-75
2021/11/05 08:50:16;;;;;;;2.13;0.47;;;20.20;99.90;;;;;;5086269;28;20026;-73
2021/11/05 08:52:44;;;;;;;0.80;0.30;;;20.30;99.90;;;;;;5094811;28;20096;-75
2021/11/05 08:55:12;;;;;;;3.20;0.60;;;20.40;99.90;;;;;;5092945;28;20039;-77
2021/11/05 08:57:40;;;;;;;4.90;0.63;;;20.40;99.90;;;;;;5087617;28;20028;-74
2021/11/05 09:00:18;;;;;;;4.03;0.40;;;20.40;99.90;;;;;;5084495;28;20032;-72
2021/11/05 09:02:46;;;;;;;3.67;0.43;;;20.50;99.90;;;;;;5083781;28;20035;-78
2021/11/05 09:05:14;;;;;;;3.25;0.63;;;20.40;99.90;;;;;;5084683;28;20028;-76
2021/11/05 09:07:42;;;;;;;1.40;0.30;;;20.30;99.90;;;;;;5085483;28;20028;-80
2021/11/05 09:10:10;;;;;;;6.55;0.60;;;20.20;99.90;;;;;;5083259;28;20016;-76
2021/11/05 09:12:39;;;;;;;3.08;0.55;;;20.20;99.90;;;;;;5082352;28;20352;-76
2021/11/05 09:15:14;;;;;;;7.43;0.88;;;20.10;99.90;;;;;;5078166;28;20065;-78
2021/11/05 09:17:42;;;;;;;3.13;0.55;;;20.10;99.90;;;;;;5084681;28;20042;-72
2021/11/05 09:20:11;;;;;;;7.18;0.80;;;20.10;99.90;;;;;;5080773;28;20546;-76
2021/11/05 09:22:38;;;;;;;1.20;0.40;;;20.00;99.90;;;;;;5082146;28;20081;-78
2021/11/05 09:25:07;;;;;;;5.63;0.82;;;20.00;99.90;;;;;;5081157;28;20036;-74
2021/11/05 09:27:36;;;;;;;1.92;0.20;;;20.00;99.90;;;;;;5081563;28;20107;-72
2021/11/05 09:30:06;;;;;;;1.25;0.60;;;20.00;99.90;;;;;;5085492;28;20024;-78
2021/11/05 09:32:33;;;;;;;1.83;0.88;;;19.90;99.90;;;;;;5077929;28;20098;-74
2021/11/05 09:35:02;;;;;;;2.17;0.82;;;19.90;99.90;;;;;;5077738;28;20021;-74
2021/11/05 09:37:29;;;;;;;6.38;0.90;;;19.90;99.90;;;;;;5080709;28;20031;-76
2021/11/05 09:39:56;;;;;;;2.08;0.60;;;19.90;99.90;;;;;;5079719;28;20035;-75
2021/11/05 09:42:24;;;;;;;3.55;0.65;;;20.00;99.90;;;;;;5079528;28;20035;-76
2021/11/05 09:44:52;;;;;;;4.45;0.73;;;20.00;99.90;;;;;;5081910;28;20032;-76
2021/11/05 09:47:19;;;;;;;7.25;1.27;;;19.90;99.90;;;;;;5079204;28;20129;-76
2021/11/05 09:49:47;;;;;;;2.95;0.77;;;19.90;99.90;;;;;;5083785;28;20020;-73
2021/11/05 09:52:14;;;;;;;3.97;0.80;;;19.90;99.90;;;;;;5081643;28;20043;-76
2021/11/05 09:54:43;;;;;;;8.55;0.50;;;19.90;99.90;;;;;;5080778;28;20731;-72
2021/11/05 09:57:10;;;;;;;2.10;0.38;;;19.90;99.90;;;;;;5082420;28;20102;-71
2021/11/05 09:59:37;;;;;;;2.30;0.60;;;19.90;99.90;;;;;;5082397;28;20635;-73
2021/11/05 10:02:05;;;;;;;5.40;0.75;;;19.90;99.90;;;;;;5078131;28;20379;-76
2021/11/05 10:04:32;;;;;;;2.72;0.77;;;19.90;99.90;;;;;;5080734;28;20016;-74
2021/11/05 10:07:11;;;;;;;4.00;1.05;;;19.90;99.90;;;;;;5078413;28;20202;-75
2021/11/05 10:09:44;;;;;;;5.53;1.35;;;19.90;99.90;;;;;;5080202;28;20421;-78
2021/11/05 10:12:13;;;;;;;9.95;0.70;;;19.90;99.90;;;;;;5082294;28;20948;-79
2021/11/05 10:14:42;;;;;;;4.85;0.93;;;19.90;99.90;;;;;;5083754;28;20478;-77
2021/11/05 10:17:12;;;;;;;4.93;0.52;;;19.90;99.90;;;;;;5076428;28;20060;-77
2021/11/05 10:20:01;;;;;;;5.55;0.65;;;19.90;99.90;;;;;;5080487;28;20107;-75
2021/11/05 10:22:49;;;;;;;6.28;0.50;;;19.80;99.90;;;;;;5080005;28;20443;-73
2021/11/05 10:25:28;;;;;;;7.47;1.23;;;19.80;99.90;;;;;;5079397;28;20046;-71
2021/11/05 10:28:27;;;;;;;5.72;0.70;;;19.80;99.90;;;;;;5061965;28;20481;-75
2021/11/05 10:31:06;;;;;;;7.93;0.80;;;19.70;99.90;;;;;;5077433;28;20024;-77
2021/11/05 10:33:40;;;;;;;4.32;0.77;;;19.70;99.90;;;;;;5078075;28;20084;-73
2021/11/05 10:36:14;;;;;;;3.00;0.40;;;19.70;99.90;;;;;;5061617;28;20103;-77
2021/11/05 10:38:51;;;;;;;2.08;0.93;;;19.70;99.90;;;;;;5081103;28;20052;-71
2021/11/05 10:41:21;;;;;;;4.93;0.50;;;19.70;99.90;;;;;;5059396;28;20077;-77
2021/11/05 10:43:57;;;;;;;4.65;0.38;;;19.70;99.90;;;;;;5083636;28;20073;-79
2021/11/05 10:46:28;;;;;;;;;;;19.70;99.90;;;;;;5079527;28;20136;-77
2021/11/05 10:49:02;;;;;;;11.85;0.95;;;19.70;99.90;;;;;;5081632;28;19914;-71
2021/11/05 10:51:32;;;;;;;2.53;0.38;;;19.70;99.90;;;;;;5078369;28;20126;-77
2021/11/05 10:54:01;;;;;;;2.70;0.57;;;19.70;99.90;;;;;;5081853;28;20273;-75
2021/11/05 10:56:31;;;;;;;3.92;0.68;;;19.60;99.90;;;;;;5080164;28;20028;-71
2021/11/05 10:59:08;;;;;;;1.60;0.40;;;19.60;99.90;;;;;;5080093;28;20024;-77
2021/11/05 11:01:38;;;;;;;5.35;0.75;;;19.60;99.90;;;;;;5080848;28;20021;-74
2021/11/05 11:04:08;;;;;;;5.53;0.40;;;19.60;99.90;;;;;;5064059;28;20051;-81
2021/11/05 11:06:49;;;;;;;2.65;0.55;;;19.60;99.90;;;;;;5080586;28;20032;-78
2021/11/05 11:09:19;;;;;;;1.95;0.20;;;19.60;99.90;;;;;;5080249;28;20467;-71
2021/11/05 11:11:52;;;;;;;2.90;0.70;;;19.50;99.90;;;;;;5083202;28;20044;-73
2021/11/05 11:14:29;;;;;;;1.42;0.50;;;19.50;99.90;;;;;;5074714;28;20048;-74
2021/11/05 11:16:57;;;;;;;1.23;0.63;;;19.60;99.90;;;;;;5080271;28;20103;-82
2021/11/05 11:19:30;;;;;;;2.00;0.82;;;19.50;99.90;;;;;;5078821;28;20127;-74
2021/11/05 11:22:00;;;;;;;5.13;2.40;;;19.50;99.90;;;;;;5077803;28;20024;-84
2021/11/05 11:24:33;;;;;;;1.55;0.35;;;19.50;99.90;;;;;;5082725;28;20024;-75
2021/11/05 11:27:02;;;;;;;3.47;0.45;;;19.50;99.90;;;;;;5077599;28;20089;-79
2021/11/05 11:29:30;;;;;;;3.65;0.40;;;19.50;99.90;;;;;;5081850;28;20032;-75
2021/11/05 11:32:01;;;;;;;3.05;1.27;;;19.50;99.90;;;;;;5079332;28;20395;-77
2021/11/05 11:34:29;;;;;;;1.10;0.32;;;19.40;99.90;;;;;;5078638;28;20067;-79
2021/11/05 11:36:59;;;;;;;1.75;0.70;;;19.50;99.90;;;;;;5075076;28;20033;-78
2021/11/05 11:39:28;;;;;;;2.85;0.65;;;19.50;99.90;;;;;;5073222;28;20028;-73
2021/11/05 11:42:02;;;;;;;2.80;0.55;;;19.40;99.90;;;;;;5075949;28;20027;-74
2021/11/05 11:44:32;;;;;;;2.97;0.40;;;19.40;99.90;;;;;;5078778;28;20129;-78
2021/11/05 11:47:02;;;;;;;2.88;0.50;;;19.40;99.90;;;;;;5077273;28;22111;-77
2021/11/05 11:49:49;;;;;;;2.22;0.73;;;19.40;99.90;;;;;;5081276;28;20024;-76
2021/11/05 11:52:16;;;;;;;5.50;0.65;;;19.40;99.90;;;;;;5079468;28;20071;-79
2021/11/05 11:55:08;;;;;;;3.15;0.50;;;19.40;99.90;;;;;;5078385;28;20036;-79
2021/11/05 11:57:35;;;;;;;1.58;1.02;;;19.40;99.90;;;;;;5065461;28;20044;-72
2021/11/05 12:00:10;;;;;;;2.70;0.50;;;19.30;99.90;;;;;;5078464;28;20024;-72
2021/11/05 12:02:39;;;;;;;3.83;1.23;;;19.40;99.90;;;;;;5077212;28;20055;-76
2021/11/05 12:05:20;;;;;;;1.48;0.20;;;19.40;99.90;;;;;;5076512;28;20032;-75
2021/11/05 12:08:30;;;;;;;4.45;0.55;;;19.40;99.90;;;;;;5076799;28;20147;-77
2021/11/05 12:11:10;;;;;;;3.33;0.50;;;19.40;99.90;;;;;;5072312;28;20474;-73
2021/11/05 12:13:37;;;;;;;1.80;0.40;;;19.40;99.90;;;;;;5079634;28;20034;-76
2021/11/05 12:16:27;;;;;;;2.17;0.47;;;19.30;99.90;;;;;;5076592;28;20128;-80
2021/11/05 12:19:01;;;;;;;4.13;0.50;;;19.30;99.90;;;;;;5076174;28;20028;-81
2021/11/05 12:21:39;;;;;;;3.00;0.70;;;19.20;99.90;;;;;;5077776;28;20491;-75
2021/11/05 12:24:32;;;;;;;2.20;1.00;;;19.20;99.90;;;;;;5075915;28;20037;-74
2021/11/05 12:27:08;;;;;;;2.72;0.30;;;19.20;99.90;;;;;;5075645;28;20072;-75
2021/11/05 12:29:37;;;;;;;3.92;0.50;;;19.20;99.90;;;;;;5077552;28;20028;-78
2021/11/05 12:32:21;;;;;;;3.53;0.50;;;19.20;99.90;;;;;;5079447;28;20035;-78
2021/11/05 12:34:50;;;;;;;8.80;1.27;;;19.20;99.90;;;;;;5060231;28;20036;-75
2021/11/05 12:37:45;;;;;;;1.08;0.30;;;19.20;99.90;;;;;;5081021;28;20090;-74
2021/11/05 12:40:32;;;;;;;2.08;0.75;;;19.20;99.90;;;;;;5085891;28;20488;-74
2021/11/05 12:43:02;;;;;;;;;;;19.10;99.90;;;;;;5086595;28;20412;-72
2021/11/05 12:45:56;;;;;;;3.72;0.40;;;19.10;99.90;;;;;;5085820;28;19912;-76
2021/11/05 12:48:39;;;;;;;0.98;0.82;;;19.10;99.90;;;;;;5080053;28;20046;-75
2021/11/05 12:51:19;;;;;;;2.67;0.40;;;19.10;99.90;;;;;;5082551;28;20043;-77
2021/11/05 12:54:00;;;;;;;2.03;0.73;;;19.10;99.90;;;;;;5080781;28;20028;-75
2021/11/05 12:56:29;;;;;;;3.67;0.70;;;19.00;99.90;;;;;;5078484;28;20028;-76
2021/11/05 12:58:58;;;;;;;5.07;0.57;;;19.00;99.90;;;;;;5084634;28;20024;-77
2021/11/05 13:01:27;;;;;;;4.80;1.55;;;19.00;99.90;;;;;;5089835;28;20132;-76